sensor_id;sensor_type;location;lat;lon;timestamp;pressure;altitude;pressure_sealevel;temperature;humidity
16525;BME280;8375;33.594;-117.718;2023-08-30T00:00:05;99558.00;;;37.49;19.15
16525;BME280;8375;33.594;-117.718;2023-08-30T00:02:34;99551.25;;;37.37;19.83
16525;BME280;8375;33.594;-117.718;2023-08-30T00:05:04;99558.53;;;37.28;20.40
16525;BME280;8375;33.594;-117.718;2023-08-30T00:07:33;99543.06;;;37.11;20.35
16525;BME280;8375;33.594;-117.718;2023-08-30T00:10:04;99548.44;;;37.02;19.52
16525;BME280;8375;33.594;-117.718;2023-08-30T00:12:34;99555.25;;;36.77;20.19
16525;BME280;8375;33.594;-117.718;2023-08-30T00:15:04;99546.31;;;36.67;20.83
16525;BME280;8375;33.594;-117.718;2023-08-30T00:17:33;99551.50;;;36.55;21.92
16525;BME280;8375;33.594;-117.718;2023-08-30T00:20:02;99550.03;;;36.49;21.99
16525;BME280;8375;33.594;-117.718;2023-08-30T00:22:31;99554.03;;;36.37;22.00
16525;BME280;8375;33.594;-117.718;2023-08-30T00:25:00;99547.78;;;36.28;22.39
16525;BME280;8375;33.594;-117.718;2023-08-30T00:27:30;99551.22;;;36.20;23.04
16525;BME280;8375;33.594;-117.718;2023-08-30T00:29:59;99559.44;;;36.15;23.16
16525;BME280;8375;33.594;-117.718;2023-08-30T00:32:28;99556.19;;;36.04;23.92
16525;BME280;8375;33.594;-117.718;2023-08-30T00:34:57;99558.91;;;36.04;24.80
16525;BME280;8375;33.594;-117.718;2023-08-30T00:37:26;99559.69;;;36.27;24.56
16525;BME280;8375;33.594;-117.718;2023-08-30T00:39:56;99559.44;;;36.37;24.68
16525;BME280;8375;33.594;-117.718;2023-08-30T00:42:26;99559.31;;;36.42;24.46
16525;BME280;8375;33.594;-117.718;2023-08-30T00:44:57;99561.25;;;36.42;25.06
16525;BME280;8375;33.594;-117.718;2023-08-30T00:47:26;99559.72;;;36.50;25.16
16525;BME280;8375;33.594;-117.718;2023-08-30T00:49:55;99554.31;;;36.50;25.32
16525;BME280;8375;33.594;-117.718;2023-08-30T00:52:24;99557.94;;;36.45;26.11
16525;BME280;8375;33.594;-117.718;2023-08-30T00:54:55;99561.28;;;36.28;26.13
16525;BME280;8375;33.594;-117.718;2023-08-30T00:57:24;99563.63;;;36.21;26.83
16525;BME280;8375;33.594;-117.718;2023-08-30T00:59:57;99552.44;;;36.14;26.43
16525;BME280;8375;33.594;-117.718;2023-08-30T01:02:26;99553.50;;;36.04;27.03
16525;BME280;8375;33.594;-117.718;2023-08-30T01:04:56;99552.53;;;35.72;27.10
16525;BME280;8375;33.594;-117.718;2023-08-30T01:07:25;99550.63;;;35.44;26.87
16525;BME280;8375;33.594;-117.718;2023-08-30T01:09:55;99550.34;;;35.32;27.14
16525;BME280;8375;33.594;-117.718;2023-08-30T01:12:27;99547.91;;;34.88;27.08
16525;BME280;8375;33.594;-117.718;2023-08-30T01:15:06;99544.44;;;34.35;27.84
16525;BME280;8375;33.594;-117.718;2023-08-30T01:17:38;99550.88;;;34.01;28.42
16525;BME280;8375;33.594;-117.718;2023-08-30T01:20:08;99550.22;;;33.85;28.72
16525;BME280;8375;33.594;-117.718;2023-08-30T01:22:45;99550.41;;;33.50;28.97
16525;BME280;8375;33.594;-117.718;2023-08-30T01:25:24;99540.91;;;33.34;29.84
16525;BME280;8375;33.594;-117.718;2023-08-30T01:27:59;99551.53;;;33.20;30.30
16525;BME280;8375;33.594;-117.718;2023-08-30T01:30:30;99537.38;;;32.80;31.01
16525;BME280;8375;33.594;-117.718;2023-08-30T01:33:00;99545.28;;;32.71;31.42
16525;BME280;8375;33.594;-117.718;2023-08-30T01:35:30;99548.56;;;32.62;31.51
16525;BME280;8375;33.594;-117.718;2023-08-30T01:38:03;99541.41;;;32.47;31.73
16525;BME280;8375;33.594;-117.718;2023-08-30T01:40:35;99540.53;;;32.17;31.91
16525;BME280;8375;33.594;-117.718;2023-08-30T01:43:07;99542.06;;;31.79;33.23
16525;BME280;8375;33.594;-117.718;2023-08-30T01:45:40;99551.00;;;31.58;32.61
16525;BME280;8375;33.594;-117.718;2023-08-30T01:48:10;99553.47;;;31.39;33.79
16525;BME280;8375;33.594;-117.718;2023-08-30T01:50:40;99558.03;;;31.34;33.91
16525;BME280;8375;33.594;-117.718;2023-08-30T01:53:11;99556.69;;;31.31;32.52
16525;BME280;8375;33.594;-117.718;2023-08-30T01:55:40;99551.91;;;31.02;33.43
16525;BME280;8375;33.594;-117.718;2023-08-30T01:58:11;99549.53;;;30.95;32.44
16525;BME280;8375;33.594;-117.718;2023-08-30T02:00:40;99554.88;;;30.90;34.02
16525;BME280;8375;33.594;-117.718;2023-08-30T02:03:09;99550.31;;;30.80;32.56
16525;BME280;8375;33.594;-117.718;2023-08-30T02:05:44;99551.69;;;30.72;33.61
16525;BME280;8375;33.594;-117.718;2023-08-30T02:08:16;99553.25;;;30.58;33.32
16525;BME280;8375;33.594;-117.718;2023-08-30T02:10:51;99550.88;;;30.62;35.26
16525;BME280;8375;33.594;-117.718;2023-08-30T02:13:26;99559.94;;;30.55;33.80
16525;BME280;8375;33.594;-117.718;2023-08-30T02:15:56;99555.94;;;30.53;32.76
16525;BME280;8375;33.594;-117.718;2023-08-30T02:18:26;99553.25;;;30.42;32.86
16525;BME280;8375;33.594;-117.718;2023-08-30T02:20:55;99552.97;;;30.34;31.23
16525;BME280;8375;33.594;-117.718;2023-08-30T02:23:24;99562.31;;;30.15;30.91
16525;BME280;8375;33.594;-117.718;2023-08-30T02:25:54;99562.75;;;29.97;31.70
16525;BME280;8375;33.594;-117.718;2023-08-30T02:28:25;99549.59;;;29.80;31.60
16525;BME280;8375;33.594;-117.718;2023-08-30T02:30:56;99561.88;;;29.81;31.92
16525;BME280;8375;33.594;-117.718;2023-08-30T02:33:25;99561.63;;;29.82;32.52
16525;BME280;8375;33.594;-117.718;2023-08-30T02:35:53;99561.09;;;29.80;32.79
16525;BME280;8375;33.594;-117.718;2023-08-30T02:38:22;99561.34;;;29.79;32.50
16525;BME280;8375;33.594;-117.718;2023-08-30T02:40:51;99562.94;;;29.75;32.87
16525;BME280;8375;33.594;-117.718;2023-08-30T02:43:20;99562.41;;;29.78;31.66
16525;BME280;8375;33.594;-117.718;2023-08-30T02:45:51;99565.84;;;29.63;32.17
16525;BME280;8375;33.594;-117.718;2023-08-30T02:48:19;99573.41;;;29.33;32.59
16525;BME280;8375;33.594;-117.718;2023-08-30T02:50:48;99575.88;;;29.02;33.18
16525;BME280;8375;33.594;-117.718;2023-08-30T02:53:17;99570.69;;;28.90;33.76
16525;BME280;8375;33.594;-117.718;2023-08-30T02:55:47;99571.19;;;28.87;34.48
16525;BME280;8375;33.594;-117.718;2023-08-30T02:58:15;99571.13;;;28.77;34.50
16525;BME280;8375;33.594;-117.718;2023-08-30T03:00:44;99572.72;;;28.78;34.42
16525;BME280;8375;33.594;-117.718;2023-08-30T03:03:14;99580.94;;;28.71;35.13
16525;BME280;8375;33.594;-117.718;2023-08-30T03:05:43;99580.16;;;28.76;35.28
16525;BME280;8375;33.594;-117.718;2023-08-30T03:08:12;99576.84;;;28.63;35.20
16525;BME280;8375;33.594;-117.718;2023-08-30T03:10:41;99577.34;;;28.60;36.15
16525;BME280;8375;33.594;-117.718;2023-08-30T03:13:09;99578.91;;;28.56;36.77
16525;BME280;8375;33.594;-117.718;2023-08-30T03:15:38;99576.78;;;28.58;37.15
16525;BME280;8375;33.594;-117.718;2023-08-30T03:18:07;99582.69;;;28.60;37.39
16525;BME280;8375;33.594;-117.718;2023-08-30T03:20:37;99582.41;;;28.57;37.31
16525;BME280;8375;33.594;-117.718;2023-08-30T03:23:06;99579.97;;;28.55;37.90
16525;BME280;8375;33.594;-117.718;2023-08-30T03:25:35;99590.16;;;28.58;38.85
16525;BME280;8375;33.594;-117.718;2023-08-30T03:28:04;99592.47;;;28.49;37.65
16525;BME280;8375;33.594;-117.718;2023-08-30T03:30:33;99590.25;;;28.41;37.86
16525;BME280;8375;33.594;-117.718;2023-08-30T03:33:02;99591.81;;;28.37;38.30
16525;BME280;8375;33.594;-117.718;2023-08-30T03:35:34;99594.38;;;28.27;38.40
16525;BME280;8375;33.594;-117.718;2023-08-30T03:38:04;99606.13;;;28.25;39.49
16525;BME280;8375;33.594;-117.718;2023-08-30T03:40:33;99612.69;;;28.18;38.92
16525;BME280;8375;33.594;-117.718;2023-08-30T03:43:02;99613.09;;;28.09;39.36
16525;BME280;8375;33.594;-117.718;2023-08-30T03:45:35;99618.63;;;28.03;38.17
16525;BME280;8375;33.594;-117.718;2023-08-30T03:48:05;99625.44;;;27.93;38.98
16525;BME280;8375;33.594;-117.718;2023-08-30T03:50:33;99620.59;;;27.90;39.06
16525;BME280;8375;33.594;-117.718;2023-08-30T03:53:04;99619.22;;;27.88;38.59
16525;BME280;8375;33.594;-117.718;2023-08-30T03:55:33;99619.66;;;27.79;38.92
16525;BME280;8375;33.594;-117.718;2023-08-30T03:58:02;99619.03;;;27.72;39.35
16525;BME280;8375;33.594;-117.718;2023-08-30T04:00:31;99620.84;;;27.66;39.44
16525;BME280;8375;33.594;-117.718;2023-08-30T04:03:01;99624.41;;;27.55;39.76
16525;BME280;8375;33.594;-117.718;2023-08-30T04:05:33;99623.34;;;27.56;40.96
16525;BME280;8375;33.594;-117.718;2023-08-30T04:08:02;99621.97;;;27.53;40.95
16525;BME280;8375;33.594;-117.718;2023-08-30T04:10:34;99632.47;;;27.43;40.49
16525;BME280;8375;33.594;-117.718;2023-08-30T04:13:03;99631.25;;;27.34;40.95
16525;BME280;8375;33.594;-117.718;2023-08-30T04:15:33;99639.50;;;27.32;41.54
16525;BME280;8375;33.594;-117.718;2023-08-30T04:18:03;99636.19;;;27.25;41.09
16525;BME280;8375;33.594;-117.718;2023-08-30T04:20:32;99637.66;;;27.16;40.64
16525;BME280;8375;33.594;-117.718;2023-08-30T04:23:01;99644.44;;;27.06;40.94
16525;BME280;8375;33.594;-117.718;2023-08-30T04:25:33;99652.41;;;27.06;42.13
16525;BME280;8375;33.594;-117.718;2023-08-30T04:28:03;99652.25;;;26.96;41.52
16525;BME280;8375;33.594;-117.718;2023-08-30T04:30:31;99647.31;;;26.76;42.10
16525;BME280;8375;33.594;-117.718;2023-08-30T04:33:00;99655.22;;;26.71;42.41
16525;BME280;8375;33.594;-117.718;2023-08-30T04:35:30;99661.28;;;26.66;42.05
16525;BME280;8375;33.594;-117.718;2023-08-30T04:37:59;99668.25;;;26.55;42.89
16525;BME280;8375;33.594;-117.718;2023-08-30T04:40:28;99661.66;;;26.58;43.70
16525;BME280;8375;33.594;-117.718;2023-08-30T04:42:59;99674.84;;;26.53;43.32
16525;BME280;8375;33.594;-117.718;2023-08-30T04:45:28;99667.00;;;26.46;43.68
16525;BME280;8375;33.594;-117.718;2023-08-30T04:47:56;99669.47;;;26.35;43.64
16525;BME280;8375;33.594;-117.718;2023-08-30T04:50:25;99667.84;;;26.23;44.00
16525;BME280;8375;33.594;-117.718;2023-08-30T04:52:54;99669.13;;;26.08;44.51
16525;BME280;8375;33.594;-117.718;2023-08-30T04:55:24;99655.63;;;25.98;45.08
16525;BME280;8375;33.594;-117.718;2023-08-30T04:57:53;99664.88;;;25.95;45.32
16525;BME280;8375;33.594;-117.718;2023-08-30T05:00:24;99649.72;;;25.96;45.85
16525;BME280;8375;33.594;-117.718;2023-08-30T05:02:52;99657.13;;;25.93;46.29
16525;BME280;8375;33.594;-117.718;2023-08-30T05:05:21;99660.59;;;25.82;46.08
16525;BME280;8375;33.594;-117.718;2023-08-30T05:07:50;99659.44;;;25.78;46.51
16525;BME280;8375;33.594;-117.718;2023-08-30T05:10:18;99668.94;;;25.74;46.73
16525;BME280;8375;33.594;-117.718;2023-08-30T05:12:47;99668.47;;;25.77;47.36
16525;BME280;8375;33.594;-117.718;2023-08-30T05:15:18;99661.41;;;25.71;47.19
16525;BME280;8375;33.594;-117.718;2023-08-30T05:17:48;99663.84;;;25.60;46.82
16525;BME280;8375;33.594;-117.718;2023-08-30T05:20:17;99666.63;;;25.54;46.66
16525;BME280;8375;33.594;-117.718;2023-08-30T05:22:45;99671.25;;;25.46;47.04
16525;BME280;8375;33.594;-117.718;2023-08-30T05:25:14;99670.38;;;25.34;47.41
16525;BME280;8375;33.594;-117.718;2023-08-30T05:27:43;99666.31;;;25.31;47.44
16525;BME280;8375;33.594;-117.718;2023-08-30T05:30:13;99671.06;;;25.29;47.73
16525;BME280;8375;33.594;-117.718;2023-08-30T05:32:41;99666.66;;;25.23;48.01
16525;BME280;8375;33.594;-117.718;2023-08-30T05:35:12;99675.09;;;25.20;49.08
16525;BME280;8375;33.594;-117.718;2023-08-30T05:37:40;99677.41;;;25.16;49.03
16525;BME280;8375;33.594;-117.718;2023-08-30T05:40:10;99678.88;;;25.12;48.19
16525;BME280;8375;33.594;-117.718;2023-08-30T05:42:41;99676.44;;;24.99;48.53
16525;BME280;8375;33.594;-117.718;2023-08-30T05:45:11;99678.38;;;24.92;49.15
16525;BME280;8375;33.594;-117.718;2023-08-30T05:47:40;99679.84;;;24.87;49.64
16525;BME280;8375;33.594;-117.718;2023-08-30T05:50:11;99683.03;;;24.78;49.04
16525;BME280;8375;33.594;-117.718;2023-08-30T05:52:40;99675.34;;;24.69;48.87
16525;BME280;8375;33.594;-117.718;2023-08-30T05:55:11;99677.72;;;24.59;50.08
16525;BME280;8375;33.594;-117.718;2023-08-30T05:57:40;99678.19;;;24.56;50.29
16525;BME280;8375;33.594;-117.718;2023-08-30T06:00:12;99674.59;;;24.50;49.26
16525;BME280;8375;33.594;-117.718;2023-08-30T06:02:41;99678.00;;;24.39;50.00
16525;BME280;8375;33.594;-117.718;2023-08-30T06:05:12;99672.16;;;24.30;50.74
16525;BME280;8375;33.594;-117.718;2023-08-30T06:07:41;99675.34;;;24.20;51.29
16525;BME280;8375;33.594;-117.718;2023-08-30T06:10:10;99676.97;;;24.21;51.34
16525;BME280;8375;33.594;-117.718;2023-08-30T06:12:38;99674.38;;;24.14;52.19
16525;BME280;8375;33.594;-117.718;2023-08-30T06:15:08;99674.66;;;24.06;52.44
16525;BME280;8375;33.594;-117.718;2023-08-30T06:17:37;99670.38;;;24.05;52.36
16525;BME280;8375;33.594;-117.718;2023-08-30T06:20:06;99676.53;;;23.99;52.80
16525;BME280;8375;33.594;-117.718;2023-08-30T06:22:37;99674.31;;;23.96;53.14
16525;BME280;8375;33.594;-117.718;2023-08-30T06:25:06;99669.69;;;23.91;53.38
16525;BME280;8375;33.594;-117.718;2023-08-30T06:27:41;99669.91;;;23.90;53.91
16525;BME280;8375;33.594;-117.718;2023-08-30T06:30:11;99674.59;;;23.87;53.86
16525;BME280;8375;33.594;-117.718;2023-08-30T06:32:40;99673.03;;;23.80;53.96
16525;BME280;8375;33.594;-117.718;2023-08-30T06:35:09;99663.69;;;23.77;53.56
16525;BME280;8375;33.594;-117.718;2023-08-30T06:37:39;99666.19;;;23.72;55.04
16525;BME280;8375;33.594;-117.718;2023-08-30T06:40:09;99673.97;;;23.67;54.64
16525;BME280;8375;33.594;-117.718;2023-08-30T06:42:38;99685.00;;;23.64;55.18
16525;BME280;8375;33.594;-117.718;2023-08-30T06:45:07;99675.28;;;23.57;55.92
16525;BME280;8375;33.594;-117.718;2023-08-30T06:47:36;99676.34;;;23.50;56.23
16525;BME280;8375;33.594;-117.718;2023-08-30T06:50:05;99676.63;;;23.41;56.59
16525;BME280;8375;33.594;-117.718;2023-08-30T06:52:36;99676.53;;;23.29;57.24
16525;BME280;8375;33.594;-117.718;2023-08-30T06:55:06;99679.16;;;23.23;57.87
16525;BME280;8375;33.594;-117.718;2023-08-30T06:57:36;99670.69;;;23.14;58.31
16525;BME280;8375;33.594;-117.718;2023-08-30T07:00:05;99668.66;;;23.09;58.31
16525;BME280;8375;33.594;-117.718;2023-08-30T07:02:36;99668.66;;;23.09;58.16
16525;BME280;8375;33.594;-117.718;2023-08-30T07:05:06;99668.66;;;23.09;58.23
16525;BME280;8375;33.594;-117.718;2023-08-30T07:07:35;99671.16;;;23.04;58.68
16525;BME280;8375;33.594;-117.718;2023-08-30T07:10:06;99665.91;;;22.97;58.89
16525;BME280;8375;33.594;-117.718;2023-08-30T07:12:34;99664.91;;;22.92;59.35
16525;BME280;8375;33.594;-117.718;2023-08-30T07:15:04;99666.97;;;22.90;60.01
16525;BME280;8375;33.594;-117.718;2023-08-30T07:17:32;99666.16;;;22.89;60.06
16525;BME280;8375;33.594;-117.718;2023-08-30T07:20:02;99665.97;;;22.84;59.76
16525;BME280;8375;33.594;-117.718;2023-08-30T07:22:35;99662.94;;;22.80;58.91
16525;BME280;8375;33.594;-117.718;2023-08-30T07:25:05;99665.03;;;22.71;58.95
16525;BME280;8375;33.594;-117.718;2023-08-30T07:27:35;99663.66;;;22.62;61.13
16525;BME280;8375;33.594;-117.718;2023-08-30T07:30:04;99666.72;;;22.59;61.16
16525;BME280;8375;33.594;-117.718;2023-08-30T07:32:33;99668.78;;;22.44;61.12
16525;BME280;8375;33.594;-117.718;2023-08-30T07:35:05;99667.41;;;22.27;62.55
16525;BME280;8375;33.594;-117.718;2023-08-30T07:37:35;99662.53;;;22.24;63.42
16525;BME280;8375;33.594;-117.718;2023-08-30T07:40:06;99672.72;;;22.21;64.18
16525;BME280;8375;33.594;-117.718;2023-08-30T07:42:35;99668.22;;;22.21;64.98
16525;BME280;8375;33.594;-117.718;2023-08-30T07:45:04;99664.59;;;22.16;66.34
16525;BME280;8375;33.594;-117.718;2023-08-30T07:47:36;99667.44;;;22.14;67.08
16525;BME280;8375;33.594;-117.718;2023-08-30T07:50:06;99659.13;;;22.10;67.06
16525;BME280;8375;33.594;-117.718;2023-08-30T07:52:35;99661.97;;;22.09;67.52
16525;BME280;8375;33.594;-117.718;2023-08-30T07:55:06;99666.88;;;22.05;67.85
16525;BME280;8375;33.594;-117.718;2023-08-30T07:57:35;99658.94;;;21.98;69.18
16525;BME280;8375;33.594;-117.718;2023-08-30T08:00:05;99667.09;;;21.97;70.23
16525;BME280;8375;33.594;-117.718;2023-08-30T08:02:34;99653.28;;;21.95;70.80
16525;BME280;8375;33.594;-117.718;2023-08-30T08:05:03;99655.09;;;21.88;71.57
16525;BME280;8375;33.594;-117.718;2023-08-30T08:07:32;99654.91;;;21.82;72.22
16525;BME280;8375;33.594;-117.718;2023-08-30T08:10:00;99650.44;;;21.76;72.30
16525;BME280;8375;33.594;-117.718;2023-08-30T08:12:33;99640.91;;;21.68;74.23
16525;BME280;8375;33.594;-117.718;2023-08-30T08:15:02;99640.09;;;21.68;75.02
16525;BME280;8375;33.594;-117.718;2023-08-30T08:17:30;99643.16;;;21.65;74.75
16525;BME280;8375;33.594;-117.718;2023-08-30T08:19:59;99642.69;;;21.61;75.53
16525;BME280;8375;33.594;-117.718;2023-08-30T08:22:28;99641.28;;;21.59;76.28
16525;BME280;8375;33.594;-117.718;2023-08-30T08:24:56;99643.72;;;21.60;75.74
16525;BME280;8375;33.594;-117.718;2023-08-30T08:27:25;99641.28;;;21.59;77.32
16525;BME280;8375;33.594;-117.718;2023-08-30T08:29:55;99637.03;;;21.51;77.66
16525;BME280;8375;33.594;-117.718;2023-08-30T08:32:24;99648.41;;;21.38;78.57
16525;BME280;8375;33.594;-117.718;2023-08-30T08:34:53;99634.81;;;21.28;79.32
16525;BME280;8375;33.594;-117.718;2023-08-30T08:37:21;99627.50;;;21.30;79.01
16525;BME280;8375;33.594;-117.718;2023-08-30T08:39:50;99636.03;;;21.32;80.16
16525;BME280;8375;33.594;-117.718;2023-08-30T08:42:20;99626.28;;;21.39;80.53
16525;BME280;8375;33.594;-117.718;2023-08-30T08:44:51;99624.03;;;21.36;80.05
16525;BME280;8375;33.594;-117.718;2023-08-30T08:47:21;99630.53;;;21.33;80.23
16525;BME280;8375;33.594;-117.718;2023-08-30T08:49:51;99621.19;;;21.31;80.57
16525;BME280;8375;33.594;-117.718;2023-08-30T08:52:20;99613.88;;;21.26;79.71
16525;BME280;8375;33.594;-117.718;2023-08-30T08:54:49;99615.91;;;21.24;79.66
16525;BME280;8375;33.594;-117.718;2023-08-30T08:57:19;99619.78;;;21.21;79.92
16525;BME280;8375;33.594;-117.718;2023-08-30T08:59:49;99611.44;;;21.18;80.43
16525;BME280;8375;33.594;-117.718;2023-08-30T09:02:18;99606.75;;;21.13;80.56
16525;BME280;8375;33.594;-117.718;2023-08-30T09:04:48;99607.16;;;21.10;80.68
16525;BME280;8375;33.594;-117.718;2023-08-30T09:07:18;99611.84;;;21.15;81.19
16525;BME280;8375;33.594;-117.718;2023-08-30T09:09:47;99615.50;;;21.14;81.05
16525;BME280;8375;33.594;-117.718;2023-08-30T09:12:15;99612.03;;;21.06;81.10
16525;BME280;8375;33.594;-117.718;2023-08-30T09:14:53;99613.22;;;21.04;81.45
16525;BME280;8375;33.594;-117.718;2023-08-30T09:17:23;99613.03;;;21.05;81.17
16525;BME280;8375;33.594;-117.718;2023-08-30T09:20:04;99613.84;;;21.06;81.61
16525;BME280;8375;33.594;-117.718;2023-08-30T09:22:37;99616.28;;;21.07;82.61
16525;BME280;8375;33.594;-117.718;2023-08-30T09:25:07;99618.31;;;21.05;82.39
16525;BME280;8375;33.594;-117.718;2023-08-30T09:27:36;99614.88;;;20.98;82.03
16525;BME280;8375;33.594;-117.718;2023-08-30T09:30:08;99615.44;;;20.93;82.54
16525;BME280;8375;33.594;-117.718;2023-08-30T09:32:41;99612.63;;;20.95;83.04
16525;BME280;8375;33.594;-117.718;2023-08-30T09:35:11;99613.44;;;20.89;82.68
16525;BME280;8375;33.594;-117.718;2023-08-30T09:37:40;99619.09;;;20.86;82.53
16525;BME280;8375;33.594;-117.718;2023-08-30T09:40:09;99613.41;;;20.82;82.90
16525;BME280;8375;33.594;-117.718;2023-08-30T09:42:41;99620.09;;;20.78;82.63
16525;BME280;8375;33.594;-117.718;2023-08-30T09:45:18;99609.53;;;20.78;82.80
16525;BME280;8375;33.594;-117.718;2023-08-30T09:47:48;99615.19;;;20.75;83.28
16525;BME280;8375;33.594;-117.718;2023-08-30T09:50:20;99612.16;;;20.71;83.45
16525;BME280;8375;33.594;-117.718;2023-08-30T09:52:49;99609.28;;;20.73;84.25
16525;BME280;8375;33.594;-117.718;2023-08-30T09:55:19;99603.00;;;20.67;84.42
16525;BME280;8375;33.594;-117.718;2023-08-30T09:57:49;99616.81;;;20.69;84.84
16525;BME280;8375;33.594;-117.718;2023-08-30T10:00:19;99617.38;;;20.64;84.78
16525;BME280;8375;33.594;-117.718;2023-08-30T10:02:48;99607.44;;;20.60;84.71
16525;BME280;8375;33.594;-117.718;2023-08-30T10:05:19;99612.31;;;20.63;85.07
16525;BME280;8375;33.594;-117.718;2023-08-30T10:07:48;99609.47;;;20.64;85.33
16525;BME280;8375;33.594;-117.718;2023-08-30T10:10:18;99604.59;;;20.61;85.57
16525;BME280;8375;33.594;-117.718;2023-08-30T10:12:47;99614.53;;;20.59;85.47
16525;BME280;8375;33.594;-117.718;2023-08-30T10:15:19;99620.81;;;20.58;86.44
16525;BME280;8375;33.594;-117.718;2023-08-30T10:17:52;99618.78;;;20.54;86.88
16525;BME280;8375;33.594;-117.718;2023-08-30T10:20:25;99618.75;;;20.47;86.93
16525;BME280;8375;33.594;-117.718;2023-08-30T10:22:55;99618.97;;;20.45;87.08
16525;BME280;8375;33.594;-117.718;2023-08-30T10:25:28;99628.72;;;20.51;88.24
16525;BME280;8375;33.594;-117.718;2023-08-30T10:27:58;99622.81;;;20.49;88.23
16525;BME280;8375;33.594;-117.718;2023-08-30T10:30:27;99625.03;;;20.39;87.64
16525;BME280;8375;33.594;-117.718;2023-08-30T10:32:56;99608.53;;;20.30;87.49
16525;BME280;8375;33.594;-117.718;2023-08-30T10:35:27;99603.06;;;20.25;87.88
16525;BME280;8375;33.594;-117.718;2023-08-30T10:37:56;99614.19;;;20.20;87.76
16525;BME280;8375;33.594;-117.718;2023-08-30T10:40:25;99606.28;;;20.20;87.67
16525;BME280;8375;33.594;-117.718;2023-08-30T10:43:01;99607.06;;;20.14;88.35
16525;BME280;8375;33.594;-117.718;2023-08-30T10:45:30;99622.50;;;20.17;89.11
16525;BME280;8375;33.594;-117.718;2023-08-30T10:47:59;99616.84;;;20.20;88.96
16525;BME280;8375;33.594;-117.718;2023-08-30T10:50:31;99610.13;;;20.18;88.22
16525;BME280;8375;33.594;-117.718;2023-08-30T10:53:00;99613.53;;;20.12;88.15
16525;BME280;8375;33.594;-117.718;2023-08-30T10:55:30;99602.97;;;20.05;88.26
16525;BME280;8375;33.594;-117.718;2023-08-30T10:58:01;99600.50;;;19.97;88.76
16525;BME280;8375;33.594;-117.718;2023-08-30T11:00:31;99602.91;;;19.98;88.08
16525;BME280;8375;33.594;-117.718;2023-08-30T11:03:00;99605.91;;;19.88;89.10
16525;BME280;8375;33.594;-117.718;2023-08-30T11:05:30;99606.47;;;19.84;89.15
16525;BME280;8375;33.594;-117.718;2023-08-30T11:07:59;99602.81;;;19.85;89.22
16525;BME280;8375;33.594;-117.718;2023-08-30T11:10:28;99603.81;;;19.84;89.06
16525;BME280;8375;33.594;-117.718;2023-08-30T11:12:57;99602.81;;;19.85;89.41
16525;BME280;8375;33.594;-117.718;2023-08-30T11:15:26;99599.44;;;19.91;90.06
16525;BME280;8375;33.594;-117.718;2023-08-30T11:18:03;99602.06;;;19.91;90.37
16525;BME280;8375;33.594;-117.718;2023-08-30T11:20:33;99602.19;;;19.83;90.02
16525;BME280;8375;33.594;-117.718;2023-08-30T11:23:03;99606.84;;;19.81;90.44
16525;BME280;8375;33.594;-117.718;2023-08-30T11:25:32;99610.06;;;19.76;90.85
16525;BME280;8375;33.594;-117.718;2023-08-30T11:28:04;99607.06;;;19.79;91.27
16525;BME280;8375;33.594;-117.718;2023-08-30T11:30:32;99606.44;;;19.77;90.75
16525;BME280;8375;33.594;-117.718;2023-08-30T11:33:03;99597.09;;;19.74;90.76
16525;BME280;8375;33.594;-117.718;2023-08-30T11:35:33;99602.78;;;19.78;91.57
16525;BME280;8375;33.594;-117.718;2023-08-30T11:38:02;99594.06;;;19.77;91.88
16525;BME280;8375;33.594;-117.718;2023-08-30T11:40:33;99602.72;;;19.71;91.80
16525;BME280;8375;33.594;-117.718;2023-08-30T11:43:03;99611.47;;;19.72;91.52
16525;BME280;8375;33.594;-117.718;2023-08-30T11:45:32;99609.38;;;19.67;91.77
16525;BME280;8375;33.594;-117.718;2023-08-30T11:48:01;99596.22;;;19.67;92.08
16525;BME280;8375;33.594;-117.718;2023-08-30T11:50:32;99603.88;;;19.62;92.00
16525;BME280;8375;33.594;-117.718;2023-08-30T11:53:02;99607.13;;;19.57;92.35
16525;BME280;8375;33.594;-117.718;2023-08-30T11:55:31;99604.47;;;19.57;92.00
16525;BME280;8375;33.594;-117.718;2023-08-30T11:58:02;99606.66;;;19.54;91.61
16525;BME280;8375;33.594;-117.718;2023-08-30T12:00:33;99608.69;;;19.52;92.01
16525;BME280;8375;33.594;-117.718;2023-08-30T12:03:06;99612.78;;;19.61;93.20
16525;BME280;8375;33.594;-117.718;2023-08-30T12:05:44;99617.00;;;19.55;93.05
16525;BME280;8375;33.594;-117.718;2023-08-30T12:08:18;99610.88;;;19.48;92.65
16525;BME280;8375;33.594;-117.718;2023-08-30T12:10:47;99606.63;;;19.47;93.04
16525;BME280;8375;33.594;-117.718;2023-08-30T12:13:23;99605.31;;;19.36;92.64
16525;BME280;8375;33.594;-117.718;2023-08-30T12:15:52;99617.91;;;19.41;93.80
16525;BME280;8375;33.594;-117.718;2023-08-30T12:18:21;99616.28;;;19.40;93.59
16525;BME280;8375;33.594;-117.718;2023-08-30T12:20:56;99621.09;;;19.36;93.74
16525;BME280;8375;33.594;-117.718;2023-08-30T12:23:26;99624.31;;;19.31;92.88
16525;BME280;8375;33.594;-117.718;2023-08-30T12:26:00;99624.25;;;19.25;92.67
16525;BME280;8375;33.594;-117.718;2023-08-30T12:28:30;99625.47;;;19.22;92.61
16525;BME280;8375;33.594;-117.718;2023-08-30T12:31:00;99627.09;;;19.23;92.46
16525;BME280;8375;33.594;-117.718;2023-08-30T12:33:30;99628.88;;;19.23;92.74
16525;BME280;8375;33.594;-117.718;2023-08-30T12:36:01;99635.16;;;19.22;92.14
16525;BME280;8375;33.594;-117.718;2023-08-30T12:38:30;99638.16;;;19.18;92.25
16525;BME280;8375;33.594;-117.718;2023-08-30T12:40:59;99630.25;;;19.18;92.58
16525;BME280;8375;33.594;-117.718;2023-08-30T12:43:27;99630.09;;;19.20;93.07
16525;BME280;8375;33.594;-117.718;2023-08-30T12:45:56;99636.34;;;19.19;93.83
16525;BME280;8375;33.594;-117.718;2023-08-30T12:48:25;99638.97;;;19.19;94.86
16525;BME280;8375;33.594;-117.718;2023-08-30T12:50:53;99643.25;;;19.20;95.18
16525;BME280;8375;33.594;-117.718;2023-08-30T12:53:24;99654.66;;;19.27;94.64